createdAt,value
2022-11-01T00:02:58.491Z,100.00
2022-11-01T00:08:35.480Z,100.00
2022-11-01T00:14:12.499Z,100.00
2022-11-01T00:19:50.461Z,100.00
2022-11-01T00:25:27.475Z,100.00
2022-11-01T00:31:10.260Z,100.00
2022-11-01T00:36:51.471Z,100.00
2022-11-01T00:42:28.471Z,100.00
2022-11-01T00:48:05.501Z,100.00
2022-11-01T00:53:43.485Z,100.00
2022-11-01T00:59:20.462Z,100.00
2022-11-01T01:04:57.461Z,100.00
2022-11-01T01:10:35.478Z,100.00
2022-11-01T01:16:12.470Z,100.00
2022-11-01T01:21:49.484Z,100.00
2022-11-01T01:27:28.486Z,100.00
2022-11-01T01:33:05.598Z,100.00
2022-11-01T01:38:42.463Z,100.00
2022-11-01T01:44:52.483Z,100.00
2022-11-01T01:50:34.465Z,100.00
2022-11-01T01:56:14.455Z,100.00
2022-11-01T02:01:54.611Z,100.00
2022-11-01T02:07:32.459Z,100.00
2022-11-01T02:13:11.505Z,100.00
2022-11-01T02:18:55.475Z,100.00
2022-11-01T02:25:02.475Z,100.00
2022-11-01T02:30:50.511Z,100.00
2022-11-01T02:36:34.444Z,100.00
2022-11-01T02:42:18.456Z,100.00
2022-11-01T02:47:55.451Z,100.00
2022-11-01T02:53:33.476Z,100.00
2022-11-01T02:59:10.457Z,100.00
2022-11-01T03:04:48.456Z,100.00
2022-11-01T03:10:27.478Z,100.00
2022-11-01T03:16:15.458Z,100.00
2022-11-01T03:21:56.454Z,100.00
2022-11-01T03:27:42.439Z,100.00
2022-11-01T03:33:20.462Z,100.00
2022-11-01T03:39:02.451Z,100.00
2022-11-01T03:44:45.457Z,100.00
2022-11-01T03:50:30.464Z,100.00
2022-11-01T03:56:07.457Z,100.00
2022-11-01T04:01:45.520Z,100.00
2022-11-01T04:07:22.455Z,100.00
2022-11-01T04:13:00.760Z,100.00
2022-11-01T04:18:56.444Z,100.00
2022-11-01T04:24:33.441Z,100.00
2022-11-01T04:30:10.459Z,100.00
2022-11-01T04:35:51.449Z,100.00
2022-11-01T04:41:31.439Z,100.00
2022-11-01T04:47:08.424Z,100.00
2022-11-01T04:52:46.439Z,100.00
2022-11-01T04:58:23.437Z,100.00
2022-11-01T05:04:04.455Z,100.00
2022-11-01T05:09:42.429Z,100.00
2022-11-01T05:15:21.454Z,100.00
2022-11-01T05:20:58.443Z,100.00
2022-11-01T05:26:36.460Z,100.00
2022-11-01T05:32:13.431Z,100.00
2022-11-01T05:37:50.442Z,100.00
2022-11-01T05:43:29.430Z,100.00
2022-11-01T05:49:06.449Z,100.00
2022-11-01T05:54:43.454Z,100.00
2022-11-01T06:00:23.444Z,100.00
2022-11-01T06:06:00.428Z,100.00
2022-11-01T06:11:41.519Z,100.00
2022-11-01T06:17:20.410Z,100.00
2022-11-01T06:22:57.451Z,100.00
2022-11-01T06:28:34.431Z,100.00
2022-11-01T06:34:12.435Z,100.00
2022-11-01T06:39:49.453Z,100.00
2022-11-01T06:45:26.455Z,100.00
2022-11-01T06:51:04.409Z,100.00
2022-11-01T06:56:41.432Z,100.00
2022-11-01T07:02:19.948Z,100.00
2022-11-01T07:07:58.421Z,100.00
2022-11-01T07:13:40.412Z,100.00
2022-11-01T07:19:17.411Z,100.00
2022-11-01T07:24:55.649Z,100.00
2022-11-01T07:30:38.458Z,100.00
2022-11-01T07:36:23.426Z,100.00
2022-11-01T07:42:05.540Z,100.00
2022-11-01T07:48:00.797Z,100.00
2022-11-01T07:53:40.414Z,93.09
2022-11-01T07:59:19.413Z,92.02
2022-11-01T08:04:56.439Z,93.30
2022-11-01T08:10:33.424Z,95.55
2022-11-01T08:16:15.445Z,96.14
2022-11-01T08:21:52.406Z,97.48
2022-11-01T08:27:22.396Z,95.67
2022-11-01T08:33:01.871Z,96.54
2022-11-01T08:38:38.414Z,96.47
2022-11-01T08:44:15.456Z,96.59
2022-11-01T08:49:53.405Z,93.75
2022-11-01T08:55:33.653Z,91.30
2022-11-01T09:01:13.536Z,87.51
2022-11-01T09:06:51.388Z,84.50
2022-11-01T09:12:28.470Z,79.96
2022-11-01T09:18:05.403Z,84.02
2022-11-01T09:23:44.427Z,87.95
2022-11-01T09:29:21.481Z,91.56
2022-11-01T09:34:58.410Z,91.23
2022-11-01T09:40:36.427Z,89.77
2022-11-01T09:46:16.462Z,92.42
2022-11-01T09:51:53.388Z,93.84
2022-11-01T09:57:36.406Z,92.99
2022-11-01T10:03:36.437Z,91.44
2022-11-01T10:09:24.394Z,91.84
2022-11-01T10:15:23.396Z,94.13
2022-11-01T10:21:01.441Z,93.05
2022-11-01T10:26:42.422Z,91.69
2022-11-01T10:32:33.417Z,92.53
2022-11-01T10:38:30.158Z,94.22
2022-11-01T10:44:21.401Z,93.47
2022-11-01T10:50:06.971Z,89.80
2022-11-01T10:55:50.380Z,87.11
2022-11-01T11:01:33.525Z,82.83
2022-11-01T11:07:11.391Z,83.21
2022-11-01T11:12:50.403Z,85.79
2022-11-01T11:18:38.421Z,85.17
2022-11-01T11:24:17.389Z,82.91
2022-11-01T11:29:57.379Z,82.90
2022-11-01T11:35:36.406Z,83.21
2022-11-01T11:41:14.389Z,84.38
2022-11-01T11:46:51.408Z,86.84
2022-11-01T11:52:31.985Z,87.43
2022-11-01T11:58:11.385Z,87.13
2022-11-01T12:03:58.403Z,88.65
2022-11-01T12:09:53.400Z,90.29
2022-11-01T12:15:43.370Z,91.39
2022-11-01T12:21:32.442Z,89.66
2022-11-01T12:27:11.410Z,88.70
2022-11-01T12:33:04.506Z,90.02
2022-11-01T12:38:56.388Z,90.16
2022-11-01T12:44:44.378Z,91.17
2022-11-01T12:50:49.394Z,89.69
2022-11-01T12:56:26.382Z,90.65
2022-11-01T13:02:09.560Z,88.61
2022-11-01T13:08:07.397Z,88.83
2022-11-01T13:13:51.392Z,88.31
2022-11-01T13:19:37.413Z,88.31
2022-11-01T13:25:20.393Z,88.25
2022-11-01T13:31:05.363Z,87.86
2022-11-01T13:36:48.378Z,89.82
2022-11-01T13:42:29.388Z,90.12
2022-11-01T13:48:14.396Z,88.19
2022-11-01T13:53:56.370Z,88.42
2022-11-01T13:59:51.400Z,89.05
2022-11-01T14:05:28.363Z,89.30
2022-11-01T14:11:05.396Z,90.66
2022-11-01T14:16:43.388Z,90.17
2022-11-01T14:22:41.387Z,92.93
2022-11-01T14:28:35.387Z,94.10
2022-11-01T14:34:16.379Z,96.51
2022-11-01T14:40:00.427Z,96.53
2022-11-01T14:46:00.569Z,96.91
2022-11-01T14:51:44.408Z,98.65
2022-11-01T14:57:35.341Z,99.46
2022-11-01T15:03:16.349Z,99.90
2022-11-01T15:08:57.395Z,100.00
2022-11-01T15:14:40.367Z,100.00
2022-11-01T15:20:25.388Z,100.00
2022-11-01T15:26:07.371Z,100.00
2022-11-01T15:31:50.239Z,100.00
2022-11-01T15:37:37.337Z,100.00
2022-11-01T15:43:18.342Z,100.00
2022-11-01T15:48:55.343Z,100.00
2022-11-01T15:54:53.350Z,100.00
2022-11-01T16:00:34.353Z,100.00
2022-11-01T16:06:15.353Z,100.00
2022-11-01T16:11:52.347Z,100.00
2022-11-01T16:17:40.365Z,100.00
2022-11-01T16:23:19.337Z,100.00
2022-11-01T16:29:01.339Z,100.00
2022-11-01T16:34:42.372Z,100.00
2022-11-01T16:40:39.202Z,100.00
2022-11-01T16:46:18.347Z,100.00
2022-11-01T16:51:57.342Z,100.00
2022-11-01T16:57:39.359Z,100.00
2022-11-01T17:03:16.369Z,100.00
2022-11-01T17:08:55.318Z,100.00
2022-11-01T17:14:32.383Z,100.00
2022-11-01T17:20:15.340Z,100.00
2022-11-01T17:25:53.361Z,100.00
2022-11-01T17:31:30.356Z,100.00
2022-11-01T17:37:07.348Z,100.00
2022-11-01T17:42:46.341Z,100.00
2022-11-01T17:48:39.316Z,100.00
2022-11-01T17:54:16.368Z,100.00
2022-11-01T17:59:54.356Z,100.00
2022-11-01T18:05:31.323Z,100.00
2022-11-01T18:11:20.324Z,100.00
2022-11-01T18:17:02.342Z,100.00
2022-11-01T18:22:46.333Z,100.00
2022-11-01T18:28:26.361Z,100.00
2022-11-01T18:34:08.320Z,100.00
2022-11-01T18:39:51.318Z,100.00
2022-11-01T18:45:51.133Z,100.00
2022-11-01T18:51:37.328Z,100.00
2022-11-01T18:57:24.316Z,100.00
2022-11-01T19:03:03.353Z,100.00
2022-11-01T19:08:41.338Z,100.00
2022-11-01T19:14:18.319Z,100.00
2022-11-01T19:19:57.320Z,100.00
2022-11-01T19:25:37.331Z,100.00
2022-11-01T19:31:22.333Z,100.00
2022-11-01T19:36:59.311Z,100.00
2022-11-01T19:42:42.308Z,100.00
2022-11-01T19:48:19.312Z,100.00
2022-11-01T19:53:56.325Z,100.00
2022-11-01T19:59:34.649Z,100.00
2022-11-01T20:05:14.296Z,100.00
2022-11-01T20:10:51.310Z,100.00
2022-11-01T20:16:29.324Z,100.00
2022-11-01T20:22:06.332Z,100.00
2022-11-01T20:27:43.354Z,100.00
2022-11-01T20:33:21.324Z,100.00
2022-11-01T20:38:59.314Z,100.00
2022-11-01T20:44:36.315Z,100.00
2022-11-01T20:50:17.367Z,100.00
2022-11-01T20:55:54.294Z,100.00
2022-11-01T21:01:33.385Z,100.00
2022-11-01T21:07:11.327Z,100.00
2022-11-01T21:12:58.300Z,100.00
2022-11-01T21:18:50.320Z,100.00
2022-11-01T21:24:47.327Z,100.00
2022-11-01T21:30:35.315Z,100.00
2022-11-01T21:36:12.307Z,100.00
2022-11-01T21:41:54.292Z,100.00
2022-11-01T21:47:35.314Z,100.00
2022-11-01T21:53:12.360Z,100.00
2022-11-01T21:58:50.294Z,100.00
2022-11-01T22:04:28.842Z,100.00
2022-11-01T22:10:05.312Z,100.00
2022-11-01T22:15:43.295Z,100.00
2022-11-01T22:21:20.295Z,100.00
2022-11-01T22:26:58.516Z,100.00
2022-11-01T22:32:36.293Z,100.00
2022-11-01T22:38:14.547Z,100.00
2022-11-01T22:43:54.300Z,100.00
2022-11-01T22:49:37.309Z,100.00
2022-11-01T22:55:18.300Z,100.00
2022-11-01T23:00:55.302Z,100.00
2022-11-01T23:06:49.286Z,100.00
2022-11-01T23:12:55.433Z,100.00
2022-11-01T23:18:37.283Z,100.00
2022-11-01T23:24:16.278Z,100.00
2022-11-01T23:29:53.292Z,100.00
2022-11-01T23:35:34.280Z,100.00
2022-11-01T23:41:12.288Z,100.00
2022-11-01T23:46:49.287Z,100.00
2022-11-01T23:52:39.287Z,100.00
2022-11-01T23:58:19.368Z,100.00
